Latest Weather Observations for Kilmore Gap

IDV60801

Issued at 6:43 pm EST Tuesday 17 May 2022 (issued every 10 minutes, with the page automatically refreshed every 10 minutes)

About weather observations | Map of weather stations | Latest weather observations for VIC | Other Formats
Station Details ID: 088162 Name: KILMORE GAP Lat: -37.38 Lon: 144.97 Height: 527.8 m
Data from the previous 72 hours. | See also: Recent months at Kilmore Gap
Date/Time
EST
Temp
°C
App
Temp
°C
Dew
Point
°C
Rel
Hum
%
Delta-T
°C
Wind Press
QNH
hPa
Press
MSL
hPa
Rain since
9am
mm
Dir  Spd
km/h
Gust
km/h
Spd
kts
Gust
kts
17/06:30pm 8.1 3.3 4.9 80 1.5 NW 19 24 10 13 1018.7 1018.8 0.0
17/06:00pm 8.5 3.1 4.7 77 1.7 NW 22 30 12 16 1018.2 1018.4 0.0
17/05:30pm 8.8 3.4 4.4 74 2.0 NW 22 28 12 15 1018.2 1018.4 0.0
17/05:00pm 8.9 2.3 4.3 73 2.1 NW 28 43 15 23 1018.0 1018.1 0.0
17/04:30pm 9.3 3.8 5.7 78 1.7 NW 24 33 13 18 1018.0 1018.1 0.0
17/04:00pm 9.4 4.2 5.4 76 1.9 NW 22 32 12 17 1018.0 1018.1 0.0
17/03:30pm 9.4 4.6 5.4 76 1.9 NW 20 28 11 15 1017.9 1018.0 0.0
17/03:00pm 9.3 4.5 5.7 78 1.7 NW 20 30 11 16 1018.0 1018.1 0.0
17/02:30pm 9.0 4.4 5.7 80 1.5 WNW 19 28 10 15 1017.8 1017.9 0.0
17/02:00pm 9.3 4.6 6.0 80 1.6 NW 20 28 11 15 1018.0 1018.1 0.0
17/01:30pm 8.9 4.3 6.3 84 1.2 NNW 20 28 11 15 1018.3 1018.5 0.0
17/01:00pm 8.9 3.4 5.8 81 1.5 NNW 24 33 13 18 1018.5 1018.6 0.0
17/12:30pm 8.1 4.2 6.9 92 0.6 N 17 20 9 11 1018.8 1018.9 0.0
17/12:00pm 9.1 3.4 4.7 74 2.0 NW 24 33 13 18 1019.1 1019.2 0.0
17/11:30am 9.1 3.5 5.3 77 1.8 WNW 24 37 13 20 1019.4 1019.5 0.0
17/11:00am 8.9 3.6 4.9 76 1.8 NW 22 33 12 18 1019.6 1019.7 0.0
17/10:30am 7.4 2.9 6.3 93 0.5 NNW 19 28 10 15 1019.8 1020.0 0.0
17/10:00am 8.0 2.7 4.8 80 1.5 NW 22 32 12 17 1019.6 1019.7 0.0
17/09:30am 7.8 2.5 4.9 82 1.3 NW 22 28 12 15 1019.6 1019.7 0.0
17/09:00am 6.7 1.0 4.7 87 0.9 NW 24 30 13 16 1019.6 1019.7 2.4
17/08:30am 5.9 0.5 4.5 91 0.6 NW 22 30 12 16 1019.4 1019.5 2.4
17/08:00am 5.2 0.1 4.2 93 0.4 NNW 20 26 11 14 1019.2 1019.3 2.4
17/07:30am 4.9 -0.6 3.9 93 0.4 NW 22 30 12 16 1019.0 1019.1 2.4
17/07:00am 4.6 -1.0 3.7 94 0.4 NW 22 30 12 16 1018.7 1018.8 2.4
17/06:30am 4.4 -1.1 3.8 96 0.3 NW 22 28 12 15 1018.5 1018.6 2.0
17/06:00am 4.3 -0.8 3.9 97 0.2 NW 20 28 11 15 1018.0 1018.1 2.0
17/05:30am 4.6 -0.3 4.2 97 0.2 NNW 19 24 10 13 1017.8 1017.9 2.0
17/05:00am 4.7 -0.7 4.3 97 0.2 NNW 22 28 12 15 1017.4 1017.5 2.0
17/04:30am 5.0 0.0 4.4 96 0.3 NW 20 26 11 14 1017.2 1017.3 2.0
17/04:00am 5.0 0.1 4.3 95 0.3 NW 19 24 10 13 1017.1 1017.2 2.0
17/03:30am 5.7 0.7 4.7 93 0.4 NNW 20 26 11 14 1017.0 1017.1 2.0
17/03:00am 5.8 0.8 4.6 92 0.5 NW 20 24 11 13 1017.2 1017.3 2.0
17/02:30am 5.3 0.3 4.7 96 0.3 NNW 20 24 11 13 1017.2 1017.3 2.0
17/02:24am 5.2 0.2 4.8 97 0.2 NNW 20 24 11 13 1017.2 1017.3 2.0
17/02:12am 5.2 0.3 4.9 98 0.1 NNW 20 24 11 13 1017.0 1017.1 2.0
17/02:00am 4.2 -0.7 3.9 98 0.1 NNW 19 24 10 13 1017.0 1017.1 2.0
17/01:46am 4.7 0.2 4.3 97 0.2 NNW 17 22 9 12 1017.1 1017.2 2.0
17/01:38am 5.7 1.1 5.4 98 0.1 NNW 19 24 10 13 1017.1 1017.2 2.0
17/01:30am 5.2 0.4 4.9 98 0.1 NNW 19 22 10 12 1017.1 1017.2 2.0
17/01:22am 4.5 0.0 4.1 97 0.2 N 17 20 9 11 1017.0 1017.1 2.0
17/01:13am 5.0 0.5 4.3 95 0.3 NNW 17 22 9 12 1017.1 1017.2 2.0
17/01:12am 5.1 0.6 4.4 95 0.3 NNW 17 22 9 12 1017.0 1017.1 2.0
17/01:00am 6.1 1.7 4.9 92 0.5 NNW 17 22 9 12 1017.0 1017.1 2.0
17/12:43am 5.9 1.6 5.3 96 0.3 NW 17 20 9 11 1017.1 1017.2 2.0
17/12:39am 5.9 1.7 5.5 97 0.2 NW 17 20 9 11 1017.1 1017.2 2.0
17/12:30am 5.8 1.6 5.5 98 0.1 NNW 17 20 9 11 1017.0 1017.1 2.0
17/12:00am 5.2 1.2 4.9 98 0.1 NNW 15 17 8 9 1016.9 1017.0 2.0
 
Date/Time
EST
Temp
°C
App
Temp
°C
Dew
Point
°C
Rel
Hum
%
Delta-T
°C
Wind Press
QNH
hPa
Press
MSL
hPa
Rain since
9am
mm
Dir  Spd
km/h
Gust
km/h
Spd
kts
Gust
kts
16/11:56pm 5.0 0.9 4.6 97 0.2 NNW 15 17 8 9 1016.9 1017.0 2.0
16/11:47pm 5.7 1.8 5.3 97 0.2 NNW 15 19 8 10 1016.9 1017.0 2.0
16/11:45pm 5.9 2.0 5.5 97 0.2 NNW 15 19 8 10 1016.9 1017.0 2.0
16/11:42pm 6.2 2.0 5.8 97 0.2 NNW 17 19 9 10 1016.9 1017.0 2.0
16/11:31pm 6.3 2.5 6.0 98 0.1 NNW 15 19 8 10 1016.9 1017.0 2.0
16/11:30pm 6.3 2.5 6.0 98 0.1 NNW 15 19 8 10 1016.9 1017.0 2.0
16/11:26pm 6.3 2.5 6.0 98 0.1 NNW 15 19 8 10 1016.9 1017.0 2.0
16/11:04pm 6.1 2.7 5.8 98 0.1 N 13 15 7 8 1017.0 1017.1 2.0
16/11:00pm 6.2 2.8 5.8 97 0.2 NNW 13 15 7 8 1016.9 1017.0 2.0
16/10:56pm 6.0 2.5 5.6 97 0.2 N 13 15 7 8 1016.9 1017.0 2.0
16/10:51pm 6.1 2.6 5.5 96 0.3 N 13 15 7 8 1016.9 1017.0 2.0
16/10:30pm 7.0 3.1 5.5 90 0.7 NW 15 20 8 11 1016.8 1016.9 2.0
16/10:00pm 7.3 3.5 5.8 90 0.7 WNW 15 19 8 10 1016.6 1016.7 2.0
16/09:30pm 7.6 3.5 6.2 91 0.7 NW 17 20 9 11 1016.2 1016.3 2.0
16/09:00pm 8.0 4.7 6.6 91 0.7 WNW 13 20 7 11 1016.5 1016.5 2.0
16/08:30pm 8.5 4.6 7.3 92 0.6 NW 17 22 9 12 1016.2 1016.3 1.8
16/08:00pm 8.2 4.3 7.1 93 0.5 NNW 17 20 9 11 1015.9 1016.0 1.8
16/07:30pm 8.2 3.9 7.1 93 0.5 NNW 19 22 10 12 1015.4 1015.5 1.8
16/07:00pm 8.0 3.5 6.1 88 0.9 NNW 19 24 10 13 1015.0 1015.1 1.8
16/06:30pm 8.7 4.7 6.8 88 0.9 NW 17 22 9 12 1014.6 1014.6 1.8
16/06:00pm 8.9 4.0 7.0 88 0.9 NW 22 32 12 17 1014.0 1014.1 1.8
16/05:30pm 9.5 3.4 6.6 82 1.4 NW 28 39 15 21 1013.6 1013.7 1.8
16/05:00pm 9.7 4.3 6.4 80 1.6 NW 24 33 13 18 1013.4 1013.5 1.8
16/04:30pm 10.3 4.6 6.6 78 1.8 NW 26 39 14 21 1013.2 1013.2 1.8
16/04:29pm 10.3 4.6 6.5 77 1.8 NW 26 39 14 21 1013.2 1013.2 1.8
16/04:00pm 11.2 5.3 7.3 77 1.9 NW 28 39 15 21 1012.7 1012.7 1.8
16/03:30pm 10.8 5.8 8.2 84 1.3 NW 24 39 13 21 1012.8 1012.8 1.8
16/03:00pm 11.8 7.2 9.7 87 1.1 NW 24 32 13 17 1012.6 1012.6 1.8
16/02:30pm 9.7 4.5 8.8 94 0.5 NW 26 35 14 19 1012.3 1012.4 1.8
16/02:19pm 9.7 5.8 8.8 94 0.5 WNW 19 26 10 14 1012.8 1012.8 1.2
16/02:04pm 9.9 6.0 8.8 93 0.6 WNW 19 33 10 18 1012.7 1012.7 0.8
16/02:00pm 10.0 5.8 8.4 90 0.8 NW 20 33 11 18 1012.8 1012.8 0.8
16/01:56pm 10.4 5.9 8.7 89 0.9 NW 22 32 12 17 1012.7 1012.7 0.6
16/01:30pm 11.1 5.3 8.1 82 1.5 NNW 28 35 15 19 1012.6 1012.6 0.0
16/01:00pm 11.3 4.8 8.3 82 1.5 NNW 32 41 17 22 1012.7 1012.7 0.0
16/12:30pm 10.7 5.0 8.5 86 1.1 NNW 28 37 15 20 1013.2 1013.2 0.0
16/12:00pm 10.6 4.9 8.5 87 1.1 NNW 28 44 15 24 1013.6 1013.7 0.0
16/11:30am 11.4 4.8 8.6 83 1.4 NNW 33 44 18 24 1014.0 1014.1 0.0
16/11:00am 10.8 4.5 8.9 88 1.0 NNW 32 41 17 22 1014.2 1014.3 0.0
16/10:30am 10.3 5.4 8.4 88 1.0 N 24 32 13 17 1014.3 1014.4 0.0
16/10:03am 9.9 5.0 8.5 91 0.7 N 24 30 13 16 1014.6 1014.6 0.0
16/10:00am 9.7 4.8 8.5 92 0.6 N 24 30 13 16 1014.6 1014.6 0.0
16/09:30am 9.0 4.9 8.6 97 0.2 N 20 24 11 13 1014.7 1014.7 0.0
16/09:24am 9.1 5.0 8.6 97 0.3 N 20 24 11 13 1014.7 1014.7 0.0
16/09:00am 8.9 4.4 8.6 98 0.2 N 22 28 12 15 1014.5 1014.5 0.8
16/08:46am 8.7 3.4 8.4 98 0.1 N 26 30 14 16 1014.3 1014.4 0.8
16/08:30am 8.3 2.5 8.0 98 0.1 N 28 32 15 17 1014.1 1014.2 0.8
16/08:05am 8.4 2.7 8.3 99 0.0 N 28 32 15 17 1013.9 1014.0 0.8
16/08:00am 8.4 2.6 8.1 98 0.1 N 28 32 15 17 1013.8 1013.9 0.8
16/07:40am 8.1 2.3 7.8 98 0.1 N 28 33 15 18 1013.5 1013.6 0.8
16/07:30am 8.1 2.7 7.8 98 0.1 N 26 32 14 17 1013.5 1013.6 0.8
16/07:26am 8.1 2.7 7.8 98 0.1 N 26 30 14 16 1013.5 1013.6 0.8
16/07:22am 8.1 3.0 7.8 98 0.1 N 24 30 13 16 1013.5 1013.6 0.8
16/07:11am 7.9 2.8 7.5 97 0.2 NNW 24 28 13 15 1013.5 1013.6 0.8
16/07:00am 8.0 2.8 7.1 94 0.4 NNW 24 32 13 17 1013.4 1013.5 0.8
16/06:30am 8.5 2.6 7.6 94 0.4 NNW 28 35 15 19 1013.2 1013.2 0.8
16/06:09am 8.6 2.8 8.0 96 0.3 NNW 28 35 15 19 1012.9 1012.9 0.8
16/06:00am 8.5 2.8 8.2 98 0.1 NNW 28 37 15 20 1012.8 1012.8 0.8
16/05:59am 8.5 2.8 8.2 98 0.1 NNW 28 37 15 20 1012.8 1012.8 0.8
16/05:44am 8.5 4.3 8.2 98 0.1 NNW 20 28 11 15 1012.8 1012.8 0.8
16/05:43am 8.5 4.0 8.4 99 0.0 N 22 28 12 15 1012.7 1012.7 0.8
16/05:42am 8.6 4.0 8.3 98 0.1 N 22 28 12 15 1012.8 1012.8 0.8
16/05:41am 8.6 4.1 8.5 99 0.0 N 22 28 12 15 1012.8 1012.8 0.8
16/05:40am 8.6 4.0 8.3 98 0.1 N 22 28 12 15 1012.8 1012.8 0.8
16/05:36am 8.6 4.4 8.3 98 0.1 N 20 28 11 15 1012.7 1012.7 0.8
16/05:30am 8.6 4.6 8.3 98 0.1 N 19 22 10 12 1012.7 1012.7 0.8
16/05:29am 8.6 4.6 8.3 98 0.1 N 19 22 10 12 1012.7 1012.7 0.8
16/05:20am 8.5 4.3 8.2 98 0.1 N 20 24 11 13 1012.5 1012.5 0.8
16/05:17am 8.5 4.3 8.2 98 0.1 N 20 26 11 14 1012.5 1012.5 0.8
16/05:04am 8.6 4.0 8.3 98 0.1 N 22 26 12 14 1012.5 1012.5 0.6
16/05:00am 8.6 4.0 8.3 98 0.1 N 22 26 12 14 1012.5 1012.5 0.6
16/04:30am 8.4 3.8 8.1 98 0.1 N 22 28 12 15 1012.3 1012.4 0.6
16/04:00am 8.1 3.0 7.8 98 0.1 NNW 24 26 13 14 1012.2 1012.3 0.6
16/03:45am 8.2 3.2 7.9 98 0.1 N 24 28 13 15 1012.2 1012.3 0.6
16/03:32am 8.3 3.3 8.0 98 0.1 N 24 28 13 15 1012.2 1012.3 0.6
16/03:30am 8.3 3.3 8.0 98 0.1 N 24 28 13 15 1012.3 1012.4 0.6
16/03:12am 8.5 3.9 8.2 98 0.1 N 22 28 12 15 1012.3 1012.4 0.6
16/03:03am 8.4 4.1 8.0 97 0.2 N 20 26 11 14 1012.5 1012.5 0.6
16/03:01am 8.4 4.1 8.0 97 0.2 N 20 26 11 14 1012.5 1012.5 0.6
16/03:00am 8.4 4.1 8.0 97 0.2 N 20 26 11 14 1012.6 1012.6 0.6
16/02:55am 8.4 4.1 8.0 97 0.2 N 20 24 11 13 1012.5 1012.5 0.6
16/02:30am 9.1 4.0 7.7 91 0.7 NNW 24 30 13 16 1012.7 1012.7 0.6
16/02:00am 9.5 4.8 7.8 89 0.8 NW 22 32 12 17 1012.3 1012.4 0.6
16/01:30am 10.0 6.5 8.6 91 0.7 NNW 17 22 9 12 1012.7 1012.7 0.6
16/01:00am 10.0 6.4 8.4 90 0.8 NW 17 22 9 12 1012.6 1012.6 0.6
16/12:30am 9.9 5.8 8.5 91 0.7 NNW 20 26 11 14 1012.3 1012.4 0.6
16/12:00am 10.1 4.9 8.9 92 0.6 N 26 32 14 17 1012.6 1012.6 0.6
 
Date/Time
EST
Temp
°C
App
Temp
°C
Dew
Point
°C
Rel
Hum
%
Delta-T
°C
Wind Press
QNH
hPa
Press
MSL
hPa
Rain since
9am
mm
Dir  Spd
km/h
Gust
km/h
Spd
kts
Gust
kts
15/11:30pm 10.1 6.0 8.5 90 0.8 NNW 20 28 11 15 1012.5 1012.5 0.6
15/11:00pm 10.3 5.5 8.9 91 0.7 NW 24 33 13 18 1012.3 1012.4 0.6
15/10:30pm 10.5 4.7 9.4 93 0.6 NW 30 41 16 22 1012.0 1012.1 0.6
15/10:26pm 10.6 4.9 9.7 94 0.5 NW 30 41 16 22 1011.9 1012.0 0.6
15/10:22pm 10.5 4.8 9.7 95 0.4 NW 30 48 16 26 1011.9 1012.0 0.6
15/10:00pm 10.7 4.6 9.9 95 0.4 WNW 32 48 17 26 1012.0 1012.1 0.6
15/09:49pm 11.5 4.7 9.2 86 1.2 NW 35 54 19 29 1011.7 1011.8 0.2
15/09:35pm 12.9 6.2 8.2 73 2.4 N 33 54 18 29 1011.2 1011.2 0.0
15/09:30pm 12.6 6.1 8.1 74 2.3 N 32 39 17 21 1011.3 1011.3 0.0
15/09:00pm 12.8 5.7 8.1 73 2.4 N 35 44 19 24 1011.1 1011.1 0.0
15/08:30pm 13.0 5.5 8.1 72 2.5 N 37 46 20 25 1011.0 1011.0 0.0
15/08:00pm 13.0 4.4 8.3 73 2.4 N 43 50 23 27 1010.6 1010.6 0.0
15/07:30pm 12.8 4.3 8.5 75 2.2 N 43 52 23 28 1010.2 1010.3 0.0
15/07:00pm 13.2 5.6 8.9 75 2.2 NNW 39 50 21 27 1010.3 1010.4 0.0
15/06:30pm 13.6 6.4 9.1 74 2.3 NNW 37 46 20 25 1010.3 1010.4 0.0
15/06:00pm 13.7 6.5 9.2 74 2.4 NNW 37 44 20 24 1009.9 1009.9 0.0
15/05:30pm 13.8 6.5 8.8 72 2.6 NNW 37 44 20 24 1009.8 1009.8 0.0
15/05:00pm 14.1 6.8 8.7 70 2.8 NNW 37 48 20 26 1009.6 1009.6 0.0
15/04:30pm 14.8 7.1 8.5 66 3.3 NNW 39 50 21 27 1009.6 1009.6 0.0
15/04:14pm 14.8 6.4 9.0 68 3.0 NNW 43 61 23 33 1009.5 1009.5 0.0
15/04:00pm 14.6 5.6 9.0 69 2.9 NNW 46 59 25 32 1009.4 1009.4 0.0
15/03:30pm 15.1 8.2 10.3 73 2.6 NNW 37 48 20 26 1009.7 1009.7 0.0
15/03:00pm 14.4 8.6 9.6 73 2.5 NNW 30 41 16 22 1010.0 1010.0 0.0
15/02:36pm 14.3 7.1 9.3 72 2.6 NNW 37 56 20 30 1009.8 1009.8 0.0
15/02:30pm 14.4 6.6 9.6 73 2.5 NNW 41 56 22 30 1009.8 1009.8 0.0
15/02:00pm 14.6 7.2 9.8 73 2.6 NNW 39 54 21 29 1009.9 1009.9 0.0
15/01:49pm 14.4 6.6 9.6 73 2.5 NNW 41 59 22 32 1010.1 1010.2 0.0
15/01:30pm 14.3 7.2 9.7 74 2.4 NNW 37 50 20 27 1010.0 1010.0 0.0
15/01:00pm 15.2 6.4 9.6 69 3.0 NNW 46 67 25 36 1009.8 1009.8 0.0
15/12:33pm 14.9 7.6 11.5 80 1.9 NNW 41 59 22 32 1010.6 1010.6 0.0
15/12:32pm 14.8 7.3 10.8 77 2.2 NNW 41 59 22 32 1010.5 1010.5 0.0
15/12:30pm 14.9 8.0 11.7 81 1.8 NNW 39 50 21 27 1010.6 1010.6 0.0
15/12:21pm 14.5 8.0 11.8 84 1.5 NNW 37 52 20 28 1011.0 1011.0 0.0
15/12:20pm 14.2 7.5 11.0 81 1.7 NNW 37 52 20 28 1011.0 1011.0 0.0
15/12:08pm 14.8 9.1 11.8 82 1.7 NNW 33 54 18 29 1011.2 1011.2 0.0
15/12:04pm 15.1 9.8 13.0 87 1.2 NNW 33 50 18 27 1011.4 1011.4 0.0
15/12:00pm 13.9 8.3 11.6 86 1.3 NNW 32 50 17 27 1011.5 1011.5 0.0
15/11:58am 14.1 8.6 12.0 87 1.2 NNW 32 50 17 27 1011.5 1011.5 0.0
15/11:47am 13.5 6.9 11.2 86 1.3 N 37 50 20 27 1011.4 1011.4 0.0
15/11:30am 14.1 7.5 12.7 91 0.8 NNW 39 50 21 27 1012.0 1012.1 0.0
15/11:00am 13.3 5.8 12.2 93 0.6 NNW 43 56 23 30 1012.1 1012.2 0.0
15/10:30am 13.1 7.4 12.9 99 0.1 NNW 35 50 19 27 1012.7 1012.7 0.0
15/10:04am 12.1 6.4 11.9 99 0.1 N 33 52 18 28 1012.7 1012.7 0.0
15/10:00am 12.1 6.4 11.9 99 0.1 N 33 43 18 23 1012.8 1012.8 0.0
15/09:52am 12.3 7.3 12.1 99 0.1 N 30 37 16 20 1012.9 1012.9 0.0
15/09:30am 12.1 7.0 11.9 99 0.1 N 30 44 16 24 1013.2 1013.2 0.0
15/09:16am 11.8 6.6 11.6 99 0.1 N 30 39 16 21 1013.4 1013.5 0.0
15/09:00am 11.8 6.2 11.6 99 0.1 N 32 41 17 22 1013.5 1013.6 1.0
15/08:30am 11.8 6.2 11.6 99 0.1 NNW 32 43 17 23 1013.4 1013.5 1.0
15/08:00am 11.6 6.0 11.4 99 0.1 N 32 37 17 20 1013.2 1013.2 1.0
15/07:30am 11.5 7.0 11.3 99 0.1 NNW 26 32 14 17 1013.4 1013.5 1.0
15/07:00am 11.4 6.1 11.2 99 0.1 N 30 39 16 21 1013.2 1013.2 1.0
15/06:30am 11.6 7.9 11.4 99 0.1 N 22 28 12 15 1013.2 1013.2 1.0
15/06:00am 11.6 8.4 11.4 99 0.1 N 19 24 10 13 1013.1 1013.1 1.0
15/05:30am 11.6 8.4 11.4 99 0.1 N 19 24 10 13 1013.1 1013.1 1.0
15/05:02am 11.6 8.4 11.4 99 0.1 N 19 22 10 12 1013.2 1013.2 1.0
15/05:01am 11.6 8.4 11.4 99 0.1 N 19 22 10 12 1013.2 1013.2 1.0
15/05:00am 11.6 8.4 11.4 99 0.1 N 19 22 10 12 1013.3 1013.3 1.0
15/04:55am 11.6 8.2 11.4 99 0.1 N 20 24 11 13 1013.3 1013.3 1.0
15/04:30am 11.4 8.0 11.2 99 0.1 N 20 24 11 13 1013.3 1013.3 1.0
15/04:00am 11.4 7.6 11.2 99 0.1 N 22 28 12 15 1013.1 1013.1 1.0
15/03:30am 11.4 8.0 11.2 99 0.1 NNW 20 24 11 13 1013.3 1013.3 1.0
15/03:00am 11.9 8.3 11.7 99 0.1 N 22 28 12 15 1013.3 1013.3 1.0
15/02:30am 12.0 8.4 11.8 99 0.1 N 22 28 12 15 1013.6 1013.7 1.0
15/02:00am 12.1 8.5 11.9 99 0.1 N 22 28 12 15 1013.7 1013.8 1.0
15/01:30am 12.3 9.2 12.1 99 0.1 N 20 24 11 13 1014.1 1014.2 1.0
15/01:00am 12.3 9.2 12.1 99 0.1 N 20 26 11 14 1013.9 1014.0 1.0
15/12:30am 12.3 9.3 12.1 99 0.1 N 19 24 10 13 1014.0 1014.1 1.0
15/12:00am 12.4 9.5 12.2 99 0.1 N 19 22 10 12 1014.2 1014.3 1.0
 
Date/Time
EST
Temp
°C
App
Temp
°C
Dew
Point
°C
Rel
Hum
%
Delta-T
°C
Wind Press
QNH
hPa
Press
MSL
hPa
Rain since
9am
mm
Dir  Spd
km/h
Gust
km/h
Spd
kts
Gust
kts
14/11:30pm 12.4 9.3 12.2 99 0.1 N 20 24 11 13 1014.3 1014.4 1.0
14/11:00pm 12.4 9.3 12.2 99 0.1 N 20 24 11 13 1014.5 1014.5 1.0
14/10:43pm 12.5 9.0 12.3 99 0.1 N 22 30 12 16 1014.6 1014.6 1.0
14/10:30pm 12.5 8.7 12.3 99 0.1 NNW 24 30 13 16 1014.7 1014.7 1.0
14/10:17pm 12.5 9.4 12.3 99 0.1 N 20 28 11 15 1014.6 1014.6 1.0
14/10:07pm 12.4 9.3 12.2 99 0.1 N 20 24 11 13 1014.7 1014.7 0.8
14/10:00pm 12.4 8.9 12.2 99 0.1 N 22 30 12 16 1014.7 1014.7 0.8
14/09:30pm 12.4 8.1 12.2 99 0.1 N 26 33 14 18 1014.5 1014.5 0.4
14/09:13pm 12.4 8.1 12.2 99 0.1 N 26 32 14 17 1014.5 1014.5 0.4
14/09:08pm 12.4 7.8 12.2 99 0.1 N 28 33 15 18 1014.5 1014.5 0.4
14/09:07pm 12.4 7.8 12.2 99 0.1 N 28 33 15 18 1014.3 1014.4 0.4
14/09:00pm 12.4 7.7 12.1 98 0.2 N 28 35 15 19 1014.3 1014.4 0.2
14/08:36pm 12.4 8.5 12.1 98 0.2 N 24 32 13 17 1014.2 1014.3 0.2
14/08:30pm 12.4 8.1 12.1 98 0.2 N 26 33 14 18 1014.2 1014.3 0.2
14/08:13pm 12.5 8.2 12.0 97 0.3 N 26 33 14 18 1014.0 1014.1 0.2
14/08:00pm 12.5 7.8 12.0 97 0.3 N 28 35 15 19 1013.9 1014.0 0.2
14/07:30pm 12.6 8.3 12.1 97 0.3 N 26 35 14 19 1013.9 1014.0 0.2
14/07:00pm 12.6 7.5 12.0 96 0.3 N 30 35 16 19 1013.4 1013.5 0.2

Other formats

Comma delimited format used in spreadsheet applications
http://www.bom.gov.au/fwo/IDV60801/IDV60801.94860.axf

JavaScript Object Notation format (JSON) in row-major order
http://www.bom.gov.au/fwo/IDV60801/IDV60801.94860.json

Data quality

Most of these data are generated automatically and are frequently updated. Quality checks on data are not normally performed. It is possible for incorrect values to appear. Refer to information at About Latest Weather Observations and please check the disclaimer before using these data.